Time;durP1;ratioP1;P1;durP2;ratioP2;P2;SDS_P1;SDS_P2;PMS_P1;PMS_P2;Temp;Humidity;BMP_temperature;BMP_pressure;BME280_temperature;BME280_humidity;BME280_pressure;Samples;Min_cycle;Max_cycle;Signal;HPM_P1;HPM_P2
2022/11/05 03:39:57;;;;;;;0.98;0.90;;;;;;;;;;6078147;22;1628704;-89
2022/11/05 03:43:04;;;;;;;0.98;0.90;;;;;;;;;;6117650;23;20245;-90
2022/11/05 03:46:12;;;;;;;0.98;0.93;;;;;;;;;;6117635;23;20191;-91
2022/11/05 03:49:22;;;;;;;17.27;9.57;;;;;;;;;;6116212;23;20170;-90
2022/11/05 03:52:30;;;;;;;17.08;10.00;;;;;;;;;;6116107;23;20169;-93
2022/11/05 03:55:42;;;;;;;19.88;10.27;;;;;;;;;;6115004;23;20237;-93
2022/11/05 03:58:48;;;;;;;17.70;10.43;;;;;;;;;;6116299;23;20210;-89
2022/11/05 04:01:54;;;;;;;16.52;9.23;;;;;;;;;;6116241;23;20244;-93
2022/11/05 04:04:59;;;;;;;18.40;10.40;;;;;;;;;;6114855;23;20169;-90
2022/11/05 04:14:51;;;;;;;16.88;9.55;;;;;;;;;;6110883;23;20289;-93
2022/11/05 04:17:57;;;;;;;17.52;9.30;;;;;;;;;;6110977;23;20170;-93
2022/11/05 04:24:26;;;;;;;15.32;9.20;;;;;;;;;;6109896;23;20162;-92
2022/11/05 04:27:33;;;;;;;14.52;8.98;;;;;;;;;;6111450;23;20190;-91
2022/11/05 04:30:37;;;;;;;16.23;9.68;;;;;;;;;;6110512;23;20174;-89
2022/11/05 04:33:42;;;;;;;14.82;8.85;;;;;;;;;;6111029;23;20198;-92
2022/11/05 04:36:48;;;;;;;15.50;9.52;;;;;;;;;;6112747;23;20173;-92
2022/11/05 04:39:53;;;;;;;14.73;9.02;;;;;;;;;;6108685;23;20192;-90
2022/11/05 04:43:00;;;;;;;16.38;8.95;;;;;;;;;;6109288;23;20173;-91
2022/11/05 04:46:05;;;;;;;16.25;9.45;;;;;;;;;;6109419;23;20169;-91
2022/11/05 04:49:10;;;;;;;15.35;9.45;;;;;;;;;;6112447;23;20161;-90
2022/11/05 04:52:16;;;;;;;18.90;9.80;;;;;;;;;;6111913;23;20226;-91
2022/11/05 04:55:22;;;;;;;17.55;9.25;;;;;;;;;;6108966;23;20198;-91
2022/11/05 04:58:29;;;;;;;14.50;9.48;;;;;;;;;;6109113;23;20166;-90
2022/11/05 05:01:35;;;;;;;15.93;9.23;;;;;;;;;;6108719;23;20249;-92
2022/11/05 05:04:40;;;;;;;15.05;8.65;;;;;;;;;;6108588;23;20166;-93
2022/11/05 05:07:45;;;;;;;14.00;8.43;;;;;;;;;;6106996;23;20501;-91
2022/11/05 05:10:50;;;;;;;15.93;9.52;;;;;;;;;;6108450;23;20170;-91
2022/11/05 05:13:57;;;;;;;16.30;9.45;;;;;;;;;;6108321;23;20837;-93
2022/11/05 05:17:02;;;;;;;18.20;9.77;;;;;;;;;;6109313;23;20641;-91
2022/11/05 05:23:34;;;;;;;13.02;8.43;;;;;;;;;;6110035;23;20166;-92
2022/11/05 05:26:40;;;;;;;15.82;8.80;;;;;;;;;;6113757;23;20181;-89
2022/11/05 05:29:48;;;;;;;16.33;9.35;;;;;;;;;;6109778;23;20166;-89
2022/11/05 05:32:53;;;;;;;14.30;9.00;;;;;;;;;;6109315;23;20240;-91
2022/11/05 05:36:00;;;;;;;17.23;10.15;;;;;;;;;;6109286;23;20198;-90
2022/11/05 05:39:09;;;;;;;16.48;9.57;;;;;;;;;;6109255;23;20290;-92
2022/11/05 05:42:14;;;;;;;16.90;10.25;;;;;;;;;;6108940;23;20173;-92
2022/11/05 05:45:25;;;;;;;16.92;10.00;;;;;;;;;;6108403;23;20174;-90
2022/11/05 05:48:30;;;;;;;16.75;9.52;;;;;;;;;;6108911;23;20174;-93
2022/11/05 05:51:35;;;;;;;16.52;9.82;;;;;;;;;;6110364;23;20509;-92
2022/11/05 05:54:40;;;;;;;18.38;10.27;;;;;;;;;;6108442;23;20218;-92
2022/11/05 05:57:45;;;;;;;19.55;10.45;;;;;;;;;;6107538;23;20244;-90
2022/11/05 06:00:52;;;;;;;18.10;9.75;;;;;;;;;;6107785;23;20161;-92
2022/11/05 06:03:57;;;;;;;17.02;9.98;;;;;;;;;;6109553;23;20218;-93
2022/11/05 06:07:02;;;;;;;17.50;10.38;;;;;;;;;;6107913;23;20174;-91
2022/11/05 06:10:08;;;;;;;18.30;10.65;;;;;;;;;;6110350;23;20605;-91
2022/11/05 06:13:13;;;;;;;22.13;12.02;;;;;;;;;;6107907;23;20284;-92
2022/11/05 06:16:19;;;;;;;22.52;11.60;;;;;;;;;;6109355;23;20173;-93
2022/11/05 06:19:24;;;;;;;19.60;10.32;;;;;;;;;;6109976;23;20165;-92
2022/11/05 23:00:51;;;;;;;30.40;14.40;;;;;;;;;;6071330;23;20217;-90
2022/11/05 23:04:22;;;;;;;28.88;13.30;;;;;;;;;;6152090;23;20216;-91
2022/11/05 23:14:25;;;;;;;28.33;12.68;;;;;;;;;;6152792;23;20189;-88
2022/11/05 23:24:18;;;;;;;27.15;13.73;;;;;;;;;;6155870;23;20167;-90
2022/11/05 23:27:24;;;;;;;28.27;13.68;;;;;;;;;;6156606;23;20213;-90
2022/11/05 23:30:29;;;;;;;26.33;13.55;;;;;;;;;;6153984;23;20189;-91
2022/11/05 23:33:35;;;;;;;28.67;13.85;;;;;;;;;;6153625;23;20195;-90
2022/11/05 23:40:04;;;;;;;32.17;13.65;;;;;;;;;;6155269;23;20165;-89
2022/11/05 23:50:17;;;;;;;23.58;12.20;;;;;;;;;;6068695;23;20258;-88
2022/11/05 23:53:24;;;;;;;27.08;13.85;;;;;;;;;;6074388;23;20204;-92
2022/11/05 23:56:31;;;;;;;27.73;13.60;;;;;;;;;;6152892;23;20268;-89
2022/11/05 23:59:36;;;;;;;26.15;13.80;;;;;;;;;;6155119;23;20232;-91
